createdAt,value
2022-08-16T00:01:18.587Z,20.50
2022-08-16T00:03:20.450Z,20.50
2022-08-16T00:05:27.601Z,20.50
2022-08-16T00:07:37.947Z,20.40
2022-08-16T00:09:41.848Z,20.40
2022-08-16T00:11:45.082Z,20.40
2022-08-16T00:13:54.338Z,20.30
2022-08-16T00:15:57.183Z,20.30
2022-08-16T00:17:59.809Z,20.30
2022-08-16T00:20:01.652Z,20.30
2022-08-16T00:22:06.951Z,20.30
2022-08-16T00:24:32.173Z,20.20
2022-08-16T00:26:37.650Z,20.20
2022-08-16T00:28:46.367Z,20.20
2022-08-16T00:30:48.549Z,20.20
2022-08-16T00:32:57.064Z,20.20
2022-08-16T00:35:00.502Z,20.20
2022-08-16T00:37:04.041Z,20.20
2022-08-16T00:39:06.159Z,20.20
2022-08-16T00:41:08.099Z,20.20
2022-08-16T00:43:16.994Z,20.20
2022-08-16T00:45:35.565Z,20.20
2022-08-16T00:47:49.227Z,20.20
2022-08-16T00:49:56.560Z,20.20
2022-08-16T00:51:59.110Z,20.20
2022-08-16T00:54:01.131Z,20.20
2022-08-16T00:56:06.829Z,20.20
2022-08-16T00:58:13.027Z,20.10
2022-08-16T01:00:19.729Z,20.10
2022-08-16T01:02:31.761Z,20.10
2022-08-16T01:04:35.960Z,20.10
2022-08-16T01:06:49.176Z,20.10
2022-08-16T01:08:55.336Z,20.10
2022-08-16T01:11:02.702Z,20.10
2022-08-16T01:13:15.154Z,20.10
2022-08-16T01:15:17.732Z,20.10
2022-08-16T01:17:24.274Z,20.00
2022-08-16T01:19:53.228Z,20.00
2022-08-16T01:22:49.543Z,20.00
2022-08-16T01:25:06.744Z,20.00
2022-08-16T01:27:15.812Z,20.00
2022-08-16T01:29:56.876Z,20.00
2022-08-16T01:31:50.096Z,20.00
2022-08-16T01:33:53.878Z,20.00
2022-08-16T01:36:01.777Z,19.90
2022-08-16T01:38:25.718Z,20.00
2022-08-16T01:40:31.076Z,19.90
2022-08-16T01:42:33.709Z,19.90
2022-08-16T01:44:37.792Z,19.90
2022-08-16T01:46:47.308Z,19.90
2022-08-16T01:48:53.687Z,19.90
2022-08-16T01:51:08.870Z,19.90
2022-08-16T01:53:19.005Z,19.90
2022-08-16T01:55:24.792Z,19.90
2022-08-16T01:57:28.081Z,19.90
2022-08-16T01:59:34.790Z,19.90
2022-08-16T02:01:36.939Z,19.90
2022-08-16T02:03:40.052Z,19.90
2022-08-16T02:05:46.591Z,19.90
2022-08-16T02:07:53.839Z,19.90
2022-08-16T02:09:59.428Z,19.90
2022-08-16T02:12:50.788Z,19.90
2022-08-16T02:14:27.335Z,19.90
2022-08-16T02:16:29.335Z,19.90
2022-08-16T02:18:31.128Z,19.80
2022-08-16T02:20:42.476Z,19.80
2022-08-16T02:22:44.679Z,19.80
2022-08-16T02:24:48.612Z,19.80
2022-08-16T02:26:51.640Z,19.70
2022-08-16T02:28:54.295Z,19.70
2022-08-16T02:30:59.412Z,19.70
2022-08-16T02:33:03.258Z,19.70
2022-08-16T02:35:05.850Z,19.70
2022-08-16T02:37:11.623Z,19.70
2022-08-16T02:39:15.231Z,19.60
2022-08-16T02:41:17.032Z,19.50
2022-08-16T02:43:19.671Z,19.50
2022-08-16T02:45:28.052Z,19.50
2022-08-16T02:47:30.150Z,19.50
2022-08-16T02:49:58.339Z,19.40
2022-08-16T02:51:53.939Z,19.40
2022-08-16T02:53:56.644Z,19.30
2022-08-16T02:55:59.209Z,19.20
2022-08-16T02:58:02.393Z,19.20
2022-08-16T03:00:33.923Z,19.20
2022-08-16T03:02:34.394Z,19.10
2022-08-16T03:04:51.079Z,19.10
2022-08-16T03:06:56.353Z,19.10
2022-08-16T03:08:58.973Z,19.00
2022-08-16T03:11:02.379Z,19.00
2022-08-16T03:13:12.532Z,19.00
2022-08-16T03:15:15.384Z,18.90
2022-08-16T03:17:19.667Z,18.90
2022-08-16T03:19:23.983Z,18.90
2022-08-16T03:21:25.966Z,18.90
2022-08-16T03:23:28.279Z,18.80
2022-08-16T03:25:44.062Z,18.80
2022-08-16T03:27:46.809Z,18.70
2022-08-16T03:29:54.633Z,18.70
2022-08-16T03:31:57.286Z,18.70
2022-08-16T03:34:01.190Z,18.70
2022-08-16T03:36:30.363Z,18.60
2022-08-16T03:38:32.935Z,18.60
2022-08-16T03:40:37.911Z,18.60
2022-08-16T03:43:02.110Z,18.50
2022-08-16T03:45:03.397Z,18.50
2022-08-16T03:47:10.369Z,18.40
2022-08-16T03:49:12.640Z,18.40
2022-08-16T03:51:15.648Z,18.40
2022-08-16T03:53:25.861Z,18.30
2022-08-16T03:55:45.683Z,18.30
2022-08-16T03:57:52.299Z,18.30
2022-08-16T03:59:54.413Z,18.20
2022-08-16T04:02:02.008Z,18.20
2022-08-16T04:04:04.774Z,18.20
2022-08-16T04:06:07.635Z,18.10
2022-08-16T04:08:22.875Z,18.10
2022-08-16T04:10:35.799Z,18.10
2022-08-16T04:12:53.937Z,18.10
2022-08-16T04:14:57.296Z,18.00
2022-08-16T04:17:00.957Z,18.00
2022-08-16T04:19:04.809Z,17.90
2022-08-16T04:21:06.786Z,17.90
2022-08-16T04:23:09.157Z,17.80
2022-08-16T04:25:12.202Z,17.80
2022-08-16T04:27:14.330Z,17.80
2022-08-16T04:29:24.423Z,17.70
2022-08-16T04:31:26.856Z,17.70
2022-08-16T04:33:35.008Z,17.70
2022-08-16T04:35:36.988Z,17.80
2022-08-16T04:37:42.253Z,17.70
2022-08-16T04:39:46.474Z,17.70
2022-08-16T04:41:49.468Z,17.70
2022-08-16T04:43:58.937Z,17.70
2022-08-16T04:46:03.057Z,17.60
2022-08-16T04:48:05.440Z,17.60
2022-08-16T04:50:16.207Z,17.60
2022-08-16T04:52:33.579Z,17.60
2022-08-16T04:54:37.545Z,17.60
2022-08-16T04:56:46.333Z,17.60
2022-08-16T04:58:50.463Z,17.60
2022-08-16T05:00:52.875Z,17.60
2022-08-16T05:02:58.648Z,17.60
2022-08-16T05:05:01.014Z,17.70
2022-08-16T05:07:03.811Z,17.70
2022-08-16T05:09:06.511Z,17.70
2022-08-16T05:11:10.401Z,17.70
2022-08-16T05:13:15.401Z,17.70
2022-08-16T05:15:17.899Z,17.70
2022-08-16T05:17:20.463Z,17.70
2022-08-16T05:19:26.725Z,17.80
2022-08-16T05:21:38.841Z,17.80
2022-08-16T05:23:44.354Z,17.80
2022-08-16T05:25:53.692Z,17.80
2022-08-16T05:27:57.549Z,17.80
2022-08-16T05:30:04.833Z,17.90
2022-08-16T05:32:32.850Z,17.80
2022-08-16T05:34:38.369Z,17.90
2022-08-16T05:36:40.191Z,17.90
2022-08-16T05:38:46.758Z,17.90
2022-08-16T05:41:00.082Z,18.00
2022-08-16T05:43:03.437Z,17.90
2022-08-16T05:45:07.133Z,17.90
2022-08-16T05:47:08.993Z,17.90
2022-08-16T05:49:22.414Z,17.90
2022-08-16T05:51:35.780Z,17.90
2022-08-16T05:53:41.719Z,17.90
2022-08-16T05:55:44.092Z,17.90
2022-08-16T05:57:47.140Z,18.00
2022-08-16T05:59:59.804Z,18.00
2022-08-16T06:02:03.360Z,18.00
2022-08-16T06:04:12.916Z,18.00
2022-08-16T06:06:15.712Z,18.00
2022-08-16T06:08:32.525Z,18.00
2022-08-16T06:11:09.726Z,18.00
2022-08-16T06:13:05.944Z,18.10
2022-08-16T06:15:16.658Z,18.10
2022-08-16T06:17:19.388Z,18.20
2022-08-16T06:19:23.749Z,18.20
2022-08-16T06:21:26.235Z,18.30
2022-08-16T06:23:28.114Z,18.30
2022-08-16T06:25:36.809Z,18.40
2022-08-16T06:27:41.107Z,18.40
2022-08-16T06:29:44.550Z,18.60
2022-08-16T06:31:51.977Z,18.60
2022-08-16T06:33:54.109Z,18.70
2022-08-16T06:35:59.685Z,18.70
2022-08-16T06:38:01.713Z,18.80
2022-08-16T06:40:05.544Z,18.90
2022-08-16T06:42:14.827Z,18.90
2022-08-16T06:44:20.833Z,19.00
2022-08-16T06:46:31.808Z,19.10
2022-08-16T06:48:34.281Z,19.20
2022-08-16T06:50:36.382Z,19.30
2022-08-16T06:53:00.506Z,19.30
2022-08-16T06:55:02.368Z,19.40
2022-08-16T06:57:05.385Z,19.50
2022-08-16T06:59:13.998Z,19.60
2022-08-16T07:01:16.057Z,19.70
2022-08-16T07:03:27.553Z,19.70
2022-08-16T07:05:42.211Z,19.80
2022-08-16T07:07:51.099Z,19.90
2022-08-16T07:09:53.063Z,20.00
2022-08-16T07:11:54.785Z,20.10
2022-08-16T07:14:25.091Z,20.20
2022-08-16T07:16:27.772Z,20.30
2022-08-16T07:18:30.084Z,20.40
2022-08-16T07:20:36.119Z,20.50
2022-08-16T07:22:50.873Z,20.60
2022-08-16T07:24:55.003Z,20.70
2022-08-16T07:26:56.903Z,20.70
2022-08-16T07:28:58.768Z,20.90
2022-08-16T07:31:02.111Z,20.90
2022-08-16T07:33:07.064Z,21.00
2022-08-16T07:35:09.311Z,21.10
2022-08-16T07:37:11.934Z,21.20
2022-08-16T07:39:15.991Z,21.30
2022-08-16T07:41:18.612Z,21.30
2022-08-16T07:43:21.735Z,21.40
2022-08-16T07:45:23.484Z,21.50
2022-08-16T07:47:31.663Z,21.60
2022-08-16T07:49:33.823Z,21.60
2022-08-16T07:51:37.151Z,21.70
2022-08-16T07:53:43.341Z,21.80
2022-08-16T07:55:48.170Z,21.90
2022-08-16T07:58:00.804Z,22.00
2022-08-16T08:00:06.204Z,22.10
2022-08-16T08:02:21.221Z,22.10
2022-08-16T08:04:23.096Z,22.20
2022-08-16T08:06:28.624Z,22.30
2022-08-16T08:08:51.617Z,22.30
2022-08-16T08:10:52.590Z,22.40
2022-08-16T08:12:55.193Z,22.50
2022-08-16T08:15:01.877Z,22.50
2022-08-16T08:17:08.586Z,22.60
2022-08-16T08:19:12.210Z,22.70
2022-08-16T08:21:14.224Z,22.80
2022-08-16T08:23:16.038Z,22.90
2022-08-16T08:25:18.442Z,23.00
2022-08-16T08:27:22.972Z,23.10
2022-08-16T08:29:37.534Z,23.10
2022-08-16T08:31:42.488Z,23.20
2022-08-16T08:33:47.300Z,23.30
2022-08-16T08:35:56.900Z,23.30
2022-08-16T08:37:59.060Z,23.40
2022-08-16T08:40:02.666Z,23.40
2022-08-16T08:42:05.917Z,23.50
2022-08-16T08:44:28.731Z,23.60
2022-08-16T08:46:35.709Z,23.70
2022-08-16T08:48:38.287Z,23.70
2022-08-16T08:50:50.243Z,23.70
2022-08-16T08:52:53.835Z,23.70
2022-08-16T08:54:55.825Z,23.80
2022-08-16T08:56:57.803Z,23.80
2022-08-16T08:59:04.397Z,23.80
2022-08-16T09:01:16.996Z,23.90
2022-08-16T09:03:39.499Z,24.00
2022-08-16T09:05:43.990Z,24.10
2022-08-16T09:07:54.818Z,24.10
2022-08-16T09:10:06.706Z,24.20
2022-08-16T09:12:35.494Z,24.30
2022-08-16T09:14:50.790Z,24.40
2022-08-16T09:17:03.228Z,24.40
2022-08-16T09:21:13.241Z,24.50
2022-08-16T09:23:18.734Z,24.60
2022-08-16T09:25:26.171Z,24.60
2022-08-16T09:27:29.600Z,24.70
2022-08-16T09:30:00.271Z,24.80
2022-08-16T09:32:04.028Z,24.90
2022-08-16T09:34:11.655Z,25.00
2022-08-16T09:36:32.485Z,25.00
2022-08-16T09:38:35.926Z,25.10
2022-08-16T09:40:42.688Z,25.20
2022-08-16T09:43:05.815Z,25.20
2022-08-16T09:45:12.199Z,25.40
2022-08-16T09:47:23.607Z,25.40
2022-08-16T09:49:36.818Z,25.50
2022-08-16T09:51:39.913Z,25.50
2022-08-16T09:53:42.109Z,25.60
2022-08-16T09:55:50.874Z,25.60
2022-08-16T09:57:53.277Z,25.70
2022-08-16T09:59:56.107Z,25.70
2022-08-16T10:01:58.820Z,25.80
2022-08-16T10:04:02.436Z,25.80
2022-08-16T10:06:06.259Z,25.80
2022-08-16T10:08:25.346Z,25.80
2022-08-16T10:10:30.476Z,25.80
2022-08-16T10:12:55.919Z,25.80
2022-08-16T10:14:58.640Z,25.70
2022-08-16T10:17:04.628Z,25.70
2022-08-16T10:19:07.588Z,25.70
2022-08-16T10:21:10.371Z,25.70
2022-08-16T10:23:17.247Z,25.60
2022-08-16T10:27:16.310Z,25.70
2022-08-16T10:27:47.229Z,25.70
2022-08-16T10:30:00.894Z,25.80
2022-08-16T10:32:08.480Z,25.90
2022-08-16T10:34:30.932Z,26.00
2022-08-16T10:36:38.622Z,26.10
2022-08-16T10:38:42.341Z,26.20
2022-08-16T10:40:45.572Z,26.30
2022-08-16T10:42:49.635Z,26.50
2022-08-16T10:44:54.779Z,26.50
2022-08-16T10:46:56.958Z,26.60
2022-08-16T10:48:58.816Z,26.60
2022-08-16T10:51:03.027Z,26.60
2022-08-16T10:53:07.640Z,26.70
2022-08-16T10:57:33.382Z,26.80
2022-08-16T10:59:45.856Z,26.90
2022-08-16T11:06:38.746Z,27.10
2022-08-16T11:08:45.378Z,27.20
2022-08-16T11:11:06.283Z,27.30
2022-08-16T11:15:35.381Z,27.40
2022-08-16T11:17:39.827Z,27.50
2022-08-16T11:20:41.210Z,27.40
2022-08-16T11:22:38.744Z,27.50
2022-08-16T11:24:41.794Z,27.60
2022-08-16T11:26:45.532Z,27.70
2022-08-16T11:29:15.733Z,27.70
2022-08-16T11:31:18.204Z,27.90
2022-08-16T11:33:51.847Z,28.00
2022-08-16T11:35:44.237Z,28.10
2022-08-16T11:38:46.600Z,28.20
2022-08-16T11:40:16.030Z,28.30
2022-08-16T11:42:29.211Z,28.40
2022-08-16T11:44:52.016Z,28.30
2022-08-16T11:46:54.112Z,28.30
2022-08-16T11:48:57.210Z,28.30
2022-08-16T11:51:00.394Z,28.40
2022-08-16T11:53:04.028Z,28.40
2022-08-16T11:55:08.341Z,28.40
2022-08-16T11:57:11.167Z,28.40
2022-08-16T11:59:13.388Z,28.50
2022-08-16T12:01:15.330Z,28.50
2022-08-16T12:03:17.973Z,28.60
2022-08-16T12:05:20.385Z,28.70
2022-08-16T12:07:23.869Z,28.80
2022-08-16T12:09:29.378Z,28.80
2022-08-16T12:11:33.164Z,28.90
2022-08-16T12:13:35.321Z,29.00
2022-08-16T12:15:39.055Z,29.10
2022-08-16T12:17:43.283Z,29.20
2022-08-16T12:19:45.969Z,29.20
2022-08-16T12:21:58.705Z,29.30
2022-08-16T12:24:02.428Z,29.30
2022-08-16T12:26:06.255Z,29.30
2022-08-16T12:28:12.682Z,29.40
2022-08-16T12:30:21.253Z,29.40
2022-08-16T12:32:35.701Z,29.40
2022-08-16T12:34:50.955Z,29.50
2022-08-16T12:36:54.873Z,29.50
2022-08-16T12:38:57.230Z,29.50
2022-08-16T12:41:01.474Z,29.60
2022-08-16T12:43:06.170Z,29.60
2022-08-16T12:45:13.166Z,29.70
2022-08-16T12:47:33.707Z,29.80
2022-08-16T12:49:42.124Z,29.80
2022-08-16T12:51:59.627Z,29.90
2022-08-16T12:54:07.331Z,30.00
2022-08-16T12:56:14.286Z,30.10
2022-08-16T12:58:49.941Z,30.10
2022-08-16T13:00:38.358Z,30.10
2022-08-16T13:02:46.535Z,30.10
2022-08-16T13:04:48.567Z,30.20
2022-08-16T13:06:53.026Z,30.20
2022-08-16T13:08:56.662Z,30.30
2022-08-16T13:10:59.538Z,30.40
2022-08-16T13:13:01.766Z,30.50
2022-08-16T13:15:10.735Z,30.50
2022-08-16T13:17:19.070Z,30.50
2022-08-16T13:19:21.316Z,30.60
2022-08-16T13:21:24.084Z,30.70
2022-08-16T13:23:26.292Z,30.90
2022-08-16T13:25:29.477Z,31.00
2022-08-16T13:28:03.019Z,31.00
2022-08-16T13:29:57.783Z,31.10
2022-08-16T13:32:00.024Z,31.20
2022-08-16T13:34:03.249Z,31.30
2022-08-16T13:36:21.326Z,31.40
2022-08-16T13:38:37.600Z,31.40
2022-08-16T13:40:40.520Z,31.60
2022-08-16T13:42:45.855Z,31.70
2022-08-16T13:44:58.188Z,31.80
2022-08-16T13:47:00.301Z,31.90
2022-08-16T13:49:02.347Z,31.90
2022-08-16T13:51:04.663Z,31.80
2022-08-16T13:53:06.522Z,31.90
2022-08-16T13:55:17.465Z,31.90
2022-08-16T13:57:20.019Z,32.00
2022-08-16T13:59:22.319Z,32.10
2022-08-16T14:01:24.136Z,32.10
2022-08-16T14:03:27.357Z,32.20
2022-08-16T14:05:32.010Z,32.30
2022-08-16T14:07:35.304Z,32.50
2022-08-16T14:09:43.140Z,32.50
2022-08-16T14:11:44.952Z,32.70
2022-08-16T14:13:46.764Z,32.80
2022-08-16T14:15:48.768Z,32.90
2022-08-16T14:18:14.764Z,33.00
2022-08-16T14:20:19.220Z,33.20
2022-08-16T14:22:35.984Z,33.30
2022-08-16T14:24:41.666Z,33.40
2022-08-16T14:26:47.364Z,33.50
2022-08-16T14:28:52.516Z,33.60
2022-08-16T14:30:56.761Z,33.80
2022-08-16T14:32:59.266Z,34.00
2022-08-16T14:35:07.210Z,34.10
2022-08-16T14:37:09.345Z,34.20
2022-08-16T14:39:12.547Z,34.30
2022-08-16T14:41:14.292Z,34.50
2022-08-16T14:43:16.428Z,34.70
2022-08-16T14:45:25.148Z,34.80
2022-08-16T14:47:31.606Z,35.00
2022-08-16T14:49:36.398Z,35.10
2022-08-16T14:51:46.176Z,35.20
2022-08-16T14:53:51.987Z,35.40
2022-08-16T14:55:54.423Z,35.50
2022-08-16T14:57:56.546Z,35.50
2022-08-16T15:00:04.668Z,35.60
2022-08-16T15:02:22.263Z,35.60
2022-08-16T15:04:40.059Z,35.80
2022-08-16T15:06:49.991Z,35.90
2022-08-16T15:08:51.750Z,36.00
2022-08-16T15:10:53.544Z,36.00
2022-08-16T15:12:56.302Z,36.00
2022-08-16T15:15:00.051Z,36.10
2022-08-16T15:17:02.863Z,36.10
2022-08-16T15:19:05.535Z,36.20
2022-08-16T15:21:08.693Z,36.40
2022-08-16T15:23:11.564Z,36.40
2022-08-16T15:25:22.140Z,36.50
2022-08-16T15:27:35.798Z,36.60
2022-08-16T15:29:38.523Z,36.70
2022-08-16T15:31:41.504Z,36.80
2022-08-16T15:33:50.645Z,36.80
2022-08-16T15:35:55.535Z,36.80
2022-08-16T15:38:01.156Z,36.80
2022-08-16T15:40:26.878Z,36.80
2022-08-16T15:42:34.945Z,36.80
2022-08-16T15:44:51.332Z,36.90
2022-08-16T15:46:58.807Z,37.00
2022-08-16T15:49:04.790Z,37.10
2022-08-16T15:51:08.278Z,37.30
2022-08-16T15:53:27.373Z,37.50
2022-08-16T15:55:35.213Z,37.60
2022-08-16T15:57:41.393Z,37.60
2022-08-16T15:59:49.027Z,37.70
2022-08-16T16:01:56.522Z,38.00
2022-08-16T16:04:00.022Z,38.20
2022-08-16T16:06:02.771Z,38.30
2022-08-16T16:08:11.044Z,38.40
2022-08-16T16:10:14.136Z,38.60
2022-08-16T16:12:43.761Z,38.70
2022-08-16T16:14:38.446Z,38.70
2022-08-16T16:16:40.842Z,38.70
2022-08-16T16:18:48.942Z,38.80
2022-08-16T16:20:55.072Z,38.70
2022-08-16T16:23:01.066Z,38.70
2022-08-16T16:25:03.094Z,38.80
2022-08-16T16:27:06.598Z,38.80
2022-08-16T16:29:15.053Z,38.80
2022-08-16T16:31:19.463Z,38.80
2022-08-16T16:33:24.894Z,38.80
2022-08-16T16:35:27.726Z,38.90
2022-08-16T16:37:34.341Z,38.90
2022-08-16T16:39:37.116Z,39.00
2022-08-16T16:41:40.104Z,38.90
2022-08-16T16:43:44.870Z,38.70
2022-08-16T16:45:46.734Z,38.70
2022-08-16T16:47:54.374Z,38.60
2022-08-16T16:49:57.302Z,38.60
2022-08-16T16:52:07.249Z,38.50
2022-08-16T16:54:09.811Z,38.40
2022-08-16T16:56:20.418Z,38.40
2022-08-16T16:58:53.469Z,38.20
2022-08-16T17:00:58.835Z,37.90
2022-08-16T17:03:01.663Z,37.60
2022-08-16T17:05:04.919Z,37.30
2022-08-16T17:07:12.165Z,37.00
2022-08-16T17:09:14.483Z,36.80
2022-08-16T17:11:16.415Z,36.60
2022-08-16T17:13:22.978Z,36.40
2022-08-16T17:15:26.262Z,36.00
2022-08-16T17:17:59.402Z,35.70
2022-08-16T17:20:00.313Z,35.40
2022-08-16T17:22:02.285Z,35.00
2022-08-16T17:24:17.930Z,34.60
2022-08-16T17:26:21.109Z,34.30
2022-08-16T17:30:53.905Z,33.50
2022-08-16T17:33:03.765Z,33.20
2022-08-16T17:35:12.251Z,32.90
2022-08-16T17:37:18.142Z,32.60
2022-08-16T17:39:28.771Z,33.90
2022-08-16T17:39:45.376Z,32.40
2022-08-16T17:42:00.946Z,32.10
2022-08-16T17:44:04.188Z,31.80
2022-08-16T17:46:41.557Z,31.70
2022-08-16T17:48:31.212Z,31.40
2022-08-16T17:50:33.528Z,31.20
2022-08-16T17:52:35.330Z,31.00
2022-08-16T17:54:51.509Z,30.80
2022-08-16T17:56:53.942Z,30.60
2022-08-16T17:58:56.252Z,30.40
2022-08-16T18:01:00.224Z,30.30
2022-08-16T18:03:02.744Z,30.10
2022-08-16T18:05:05.322Z,29.90
2022-08-16T18:07:07.175Z,29.80
2022-08-16T18:09:09.524Z,29.50
2022-08-16T18:11:13.258Z,29.40
2022-08-16T18:13:16.168Z,29.30
2022-08-16T18:15:19.036Z,29.10
2022-08-16T18:17:21.180Z,29.00
2022-08-16T18:19:22.943Z,28.90
2022-08-16T18:21:43.801Z,28.80
2022-08-16T18:23:45.602Z,28.70
2022-08-16T18:25:56.841Z,28.50
2022-08-16T18:27:58.692Z,28.40
2022-08-16T18:30:00.569Z,28.20
2022-08-16T18:32:05.884Z,28.10
2022-08-16T18:34:07.789Z,28.00
2022-08-16T18:36:20.643Z,27.80
2022-08-16T18:38:23.343Z,27.70
2022-08-16T18:40:25.537Z,27.60
2022-08-16T18:42:27.358Z,27.40
2022-08-16T18:44:33.318Z,27.30
2022-08-16T18:46:38.773Z,27.20
2022-08-16T18:48:40.639Z,27.10
2022-08-16T18:51:04.079Z,26.90
2022-08-16T18:53:11.374Z,26.80
2022-08-16T18:55:13.954Z,26.70
2022-08-16T18:57:16.575Z,26.60
2022-08-16T18:59:18.372Z,26.50
2022-08-16T19:01:21.049Z,26.40
2022-08-16T19:03:29.364Z,26.30
2022-08-16T19:05:34.018Z,26.10
2022-08-16T19:07:35.774Z,26.00
2022-08-16T19:09:38.080Z,25.90
2022-08-16T19:11:39.859Z,25.80
2022-08-16T19:13:44.184Z,25.70
2022-08-16T19:15:48.277Z,25.60
2022-08-16T19:17:50.160Z,25.50
2022-08-16T19:19:51.985Z,25.40
2022-08-16T19:21:53.776Z,25.30
2022-08-16T19:23:56.431Z,25.20
2022-08-16T19:26:00.729Z,25.10
2022-08-16T19:28:02.688Z,25.00
2022-08-16T19:30:09.145Z,24.90
2022-08-16T19:32:28.803Z,24.70
2022-08-16T19:34:30.884Z,24.70
2022-08-16T19:36:37.110Z,24.60
2022-08-16T19:38:39.288Z,24.60
2022-08-16T19:40:41.244Z,24.50
2022-08-16T19:42:48.286Z,24.50
2022-08-16T19:44:53.338Z,24.40
2022-08-16T19:46:55.342Z,24.30
2022-08-16T19:48:57.229Z,24.30
2022-08-16T19:50:59.077Z,24.20
2022-08-16T19:53:15.064Z,24.10
2022-08-16T19:55:22.666Z,24.00
2022-08-16T19:57:24.864Z,24.00
2022-08-16T19:59:39.932Z,23.90
2022-08-16T20:01:43.861Z,23.80
2022-08-16T20:03:45.712Z,23.70
2022-08-16T20:05:50.996Z,23.70
2022-08-16T20:07:54.337Z,23.60
2022-08-16T20:09:59.074Z,23.50
2022-08-16T20:12:07.295Z,23.50
2022-08-16T20:14:09.104Z,23.40
2022-08-16T20:16:10.879Z,23.30
2022-08-16T20:18:24.453Z,23.30
2022-08-16T20:20:28.522Z,23.20
2022-08-16T20:22:52.847Z,23.20
2022-08-16T20:24:55.248Z,23.10
2022-08-16T20:26:57.476Z,23.00
2022-08-16T20:28:59.280Z,22.90
2022-08-16T20:31:01.608Z,22.80
2022-08-16T20:33:10.068Z,22.80
2022-08-16T20:35:14.729Z,22.70
2022-08-16T20:37:17.027Z,22.70
2022-08-16T20:39:18.801Z,22.70
2022-08-16T20:41:20.567Z,22.60
2022-08-16T20:43:22.348Z,22.60
2022-08-16T20:45:26.939Z,22.50
2022-08-16T20:47:29.501Z,22.50
2022-08-16T20:49:31.389Z,22.40
2022-08-16T20:51:33.196Z,22.40
2022-08-16T20:53:51.793Z,22.30
2022-08-16T20:55:53.587Z,22.20
2022-08-16T20:57:55.457Z,22.20
2022-08-16T20:59:57.293Z,22.20
2022-08-16T21:01:59.480Z,22.10
2022-08-16T21:04:01.258Z,22.00
2022-08-16T21:06:04.495Z,22.00
2022-08-16T21:08:51.041Z,22.00
2022-08-16T21:10:28.657Z,21.90
2022-08-16T21:12:33.857Z,21.90
2022-08-16T21:14:42.837Z,21.80
2022-08-16T21:16:44.870Z,21.70
2022-08-16T21:18:46.850Z,21.70
2022-08-16T21:20:48.607Z,21.60
2022-08-16T21:23:02.090Z,21.60
2022-08-16T21:25:04.101Z,21.60
2022-08-16T21:27:06.273Z,21.50
2022-08-16T21:29:11.217Z,21.50
2022-08-16T21:31:18.976Z,21.50
2022-08-16T21:33:21.200Z,21.40
2022-08-16T21:35:22.961Z,21.40
2022-08-16T21:37:24.740Z,21.40
2022-08-16T21:39:26.578Z,21.30
2022-08-16T21:41:28.364Z,21.30
2022-08-16T21:43:33.226Z,21.30
2022-08-16T21:45:36.116Z,21.20
2022-08-16T21:47:37.849Z,21.20
2022-08-16T21:49:39.724Z,21.10
2022-08-16T21:51:41.574Z,21.10
2022-08-16T21:53:44.281Z,21.00
2022-08-16T21:55:48.152Z,21.00
2022-08-16T21:57:49.913Z,20.90
2022-08-16T21:59:53.538Z,20.90
2022-08-16T22:01:55.593Z,20.90
2022-08-16T22:04:36.069Z,20.90
2022-08-16T22:06:19.432Z,20.80
2022-08-16T22:08:21.552Z,20.80
2022-08-16T22:11:04.767Z,20.70
2022-08-16T22:12:47.791Z,20.70
2022-08-16T22:14:50.092Z,20.70
2022-08-16T22:16:52.025Z,20.60
2022-08-16T22:18:53.832Z,20.60
2022-08-16T22:20:55.651Z,20.60
2022-08-16T22:23:11.646Z,20.50
2022-08-16T22:25:15.218Z,20.50
2022-08-16T22:27:17.028Z,20.40
2022-08-16T22:29:19.260Z,20.40
2022-08-16T22:31:21.073Z,20.40
2022-08-16T22:33:26.703Z,20.30
2022-08-16T22:35:28.481Z,20.30
2022-08-16T22:37:30.297Z,20.30
2022-08-16T22:39:32.150Z,20.20
2022-08-16T22:41:35.947Z,20.20
2022-08-16T22:43:38.079Z,20.10
2022-08-16T22:45:40.290Z,20.10
2022-08-16T22:47:42.512Z,20.10
2022-08-16T22:49:44.287Z,20.00
2022-08-16T22:51:46.384Z,20.00
2022-08-16T22:53:48.399Z,20.00
2022-08-16T22:55:50.690Z,19.90
2022-08-16T22:57:53.385Z,19.90
2022-08-16T22:59:55.138Z,19.80
2022-08-16T23:01:57.076Z,19.80
2022-08-16T23:03:59.180Z,19.70
2022-08-16T23:06:00.995Z,19.80
2022-08-16T23:08:04.556Z,19.70
2022-08-16T23:10:06.858Z,19.70
2022-08-16T23:12:08.935Z,19.70
2022-08-16T23:14:10.729Z,19.60
2022-08-16T23:16:12.888Z,19.60
2022-08-16T23:18:16.079Z,19.60
2022-08-16T23:20:27.193Z,19.60
2022-08-16T23:23:21.184Z,19.50
2022-08-16T23:25:07.448Z,19.50
2022-08-16T23:27:09.329Z,19.40
2022-08-16T23:29:15.548Z,19.40
2022-08-16T23:31:25.514Z,19.40
2022-08-16T23:33:28.323Z,19.40
2022-08-16T23:35:44.997Z,19.30
2022-08-16T23:37:47.698Z,19.30
2022-08-16T23:39:49.530Z,19.20
2022-08-16T23:41:56.788Z,19.20
2022-08-16T23:43:58.594Z,19.20
2022-08-16T23:46:03.562Z,19.20
2022-08-16T23:48:06.185Z,19.10
2022-08-16T23:50:08.316Z,19.10
2022-08-16T23:52:10.445Z,19.10
2022-08-16T23:54:12.242Z,19.10
2022-08-16T23:56:18.018Z,19.10
2022-08-16T23:58:24.308Z,19.00
